VSV703 UAAA-UACC
Flight info
| Callsign | VSV703 |
|---|---|
| Flight time | 1h 26m |
| Altitude | 38000 |
| Route | ETEDA1B ETEDA W333 BANOS BANOS1D |
| Aircraft | B752/M-SDE3FGHIM3RWXY/LB1 |
Departure
| Time | 2026-04-21 19:24 |
|---|---|
| Airport | Almaty International Airport (UAAA) |
Arrival
| Time | 2026-04-21 20:51 |
|---|---|
| Airport | Nursultan Nazarbayev International Airport (UACC) |
| Time | Latitude | Longitude | Altitude | Speed | Heading |
|---|---|---|---|---|---|
| 2026-04-21 18:30 | 43.34571 | 77.01387 | 2245 ft | 0 kts | 286° |
| 2026-04-21 19:11 | 43.34569 | 77.01395 | 2245 ft | 2 kts | 286° |
| 2026-04-21 19:11 | 43.34565 | 77.01415 | 2245 ft | 2 kts | 286° |
| 2026-04-21 19:11 | 43.34561 | 77.01435 | 2245 ft | 2 kts | 286° |
| 2026-04-21 19:12 | 43.34558 | 77.01449 | 2245 ft | 2 kts | 286° |
| 2026-04-21 19:12 | 43.34552 | 77.01475 | 2245 ft | 2 kts | 285° |
| 2026-04-21 19:12 | 43.34544 | 77.01490 | 2245 ft | 2 kts | 340° |
| 2026-04-21 19:12 | 43.34530 | 77.01490 | 2245 ft | 2 kts | 27° |
| 2026-04-21 19:13 | 43.34518 | 77.01477 | 2245 ft | 2 kts | 56° |
| 2026-04-21 19:13 | 43.34512 | 77.01459 | 2245 ft | 2 kts | 70° |
| 2026-04-21 19:13 | 43.34506 | 77.01440 | 2245 ft | 2 kts | 64° |
| 2026-04-21 19:13 | 43.34500 | 77.01421 | 2245 ft | 2 kts | 66° |
| 2026-04-21 19:14 | 43.34498 | 77.01415 | 2245 ft | 0 kts | 66° |
| 2026-04-21 19:21 | 43.34506 | 77.01439 | 2245 ft | 6 kts | 65° |
| 2026-04-21 19:21 | 43.34502 | 77.01509 | 2245 ft | 9 kts | 135° |
| 2026-04-21 19:22 | 43.34429 | 77.01563 | 2245 ft | 13 kts | 155° |
| 2026-04-21 19:22 | 43.34340 | 77.01620 | 2246 ft | 13 kts | 156° |
| 2026-04-21 19:22 | 43.34255 | 77.01672 | 2246 ft | 13 kts | 155° |
| 2026-04-21 19:22 | 43.34179 | 77.01730 | 2246 ft | 11 kts | 136° |
| 2026-04-21 19:23 | 43.34166 | 77.01823 | 2246 ft | 9 kts | 72° |
| 2026-04-21 19:23 | 43.34193 | 77.01887 | 2246 ft | 6 kts | 55° |
| 2026-04-21 19:23 | 43.34256 | 77.02016 | 2246 ft | 33 kts | 56° |
| 2026-04-21 19:23 | 43.34508 | 77.02526 | 2246 ft | 97 kts | 57° |
| 2026-04-21 19:24 | 43.35012 | 77.03543 | 2249 ft | 157 kts | 56° |
| 2026-04-21 19:24 | 43.35709 | 77.04927 | 2496 ft | 192 kts | 58° |
| 2026-04-21 19:24 | 43.36438 | 77.06454 | 3491 ft | 192 kts | 59° |
| 2026-04-21 19:24 | 43.37209 | 77.07931 | 4034 ft | 201 kts | 55° |
| 2026-04-21 19:25 | 43.38078 | 77.09537 | 4409 ft | 218 kts | 55° |
| 2026-04-21 19:25 | 43.38996 | 77.11272 | 4925 ft | 230 kts | 56° |
| 2026-04-21 19:25 | 43.39932 | 77.13106 | 5479 ft | 242 kts | 57° |
| 2026-04-21 19:25 | 43.40935 | 77.15057 | 5975 ft | 258 kts | 50° |
| 2026-04-21 19:26 | 43.42387 | 77.16508 | 6714 ft | 264 kts | 20° |
| 2026-04-21 19:26 | 43.44219 | 77.16822 | 7299 ft | 276 kts | 352° |
| 2026-04-21 19:26 | 43.46056 | 77.15932 | 7724 ft | 289 kts | 329° |
| 2026-04-21 19:26 | 43.47791 | 77.14610 | 8617 ft | 290 kts | 331° |
| 2026-04-21 19:27 | 43.48795 | 77.13902 | 8965 ft | 296 kts | 332° |
| 2026-04-21 19:27 | 43.50679 | 77.12596 | 9096 ft | 303 kts | 330° |
| 2026-04-21 19:27 | 43.52277 | 77.10824 | 9597 ft | 297 kts | 304° |
| 2026-04-21 19:27 | 43.53167 | 77.08340 | 10566 ft | 290 kts | 287° |
| 2026-04-21 19:28 | 43.53715 | 77.05585 | 10998 ft | 309 kts | 280° |
| 2026-04-21 19:28 | 43.54075 | 77.02599 | 11360 ft | 329 kts | 277° |
| 2026-04-21 19:28 | 43.54343 | 76.99411 | 11851 ft | 344 kts | 276° |
| 2026-04-21 19:28 | 43.54949 | 76.96154 | 12338 ft | 358 kts | 294° |
| 2026-04-21 19:29 | 43.56247 | 76.93298 | 13276 ft | 357 kts | 309° |
| 2026-04-21 19:29 | 43.57949 | 76.90762 | 14034 ft | 361 kts | 311° |
| 2026-04-21 19:29 | 43.59656 | 76.88258 | 14798 ft | 364 kts | 312° |
| 2026-04-21 19:29 | 43.61411 | 76.85728 | 15631 ft | 365 kts | 312° |
| 2026-04-21 19:30 | 43.63171 | 76.83192 | 16337 ft | 368 kts | 312° |
| 2026-04-21 19:30 | 43.64927 | 76.80669 | 17013 ft | 370 kts | 312° |
| 2026-04-21 19:30 | 43.66719 | 76.78097 | 17725 ft | 373 kts | 312° |
| 2026-04-21 19:30 | 43.68509 | 76.75528 | 18338 ft | 376 kts | 312° |
| 2026-04-21 19:31 | 43.70331 | 76.72913 | 19061 ft | 377 kts | 312° |
| 2026-04-21 19:31 | 43.72151 | 76.70299 | 19678 ft | 381 kts | 312° |
| 2026-04-21 19:31 | 43.73969 | 76.67687 | 20338 ft | 383 kts | 311° |
| 2026-04-21 19:31 | 43.75780 | 76.64990 | 21009 ft | 384 kts | 310° |
| 2026-04-21 19:32 | 43.77573 | 76.62243 | 21655 ft | 386 kts | 310° |
| 2026-04-21 19:32 | 43.79382 | 76.59480 | 22208 ft | 389 kts | 310° |
| 2026-04-21 19:32 | 43.81189 | 76.56716 | 22861 ft | 390 kts | 310° |
| 2026-04-21 19:32 | 43.83062 | 76.53996 | 23359 ft | 396 kts | 315° |
| 2026-04-21 19:33 | 43.84494 | 76.52415 | 23724 ft | 400 kts | 322° |
| 2026-04-21 19:33 | 43.87800 | 76.50030 | 24542 ft | 407 kts | 335° |
| 2026-04-21 19:33 | 43.90540 | 76.48992 | 24983 ft | 417 kts | 345° |
| 2026-04-21 19:33 | 43.93446 | 76.48668 | 25597 ft | 424 kts | 354° |
| 2026-04-21 19:34 | 43.96420 | 76.49043 | 25934 ft | 437 kts | 5° |
| 2026-04-21 19:34 | 43.99390 | 76.50183 | 26469 ft | 446 kts | 13° |
| 2026-04-21 19:34 | 44.02249 | 76.51949 | 26717 ft | 458 kts | 19° |
| 2026-04-21 19:34 | 44.05121 | 76.53826 | 27223 ft | 456 kts | 17° |
| 2026-04-21 19:35 | 44.07990 | 76.55588 | 27769 ft | 453 kts | 15° |
| 2026-04-21 19:35 | 44.13960 | 76.58195 | 28416 ft | 444 kts | 360° |
| 2026-04-21 19:35 | 44.17024 | 76.58442 | 28789 ft | 433 kts | 349° |
| 2026-04-21 19:36 | 44.19951 | 76.57958 | 29208 ft | 425 kts | 341° |
| 2026-04-21 19:36 | 44.21629 | 76.57449 | 29375 ft | 425 kts | 340° |
| 2026-04-21 19:36 | 44.24481 | 76.56550 | 29947 ft | 422 kts | 340° |
| 2026-04-21 19:36 | 44.27384 | 76.55621 | 30220 ft | 425 kts | 340° |
| 2026-04-21 19:37 | 44.30252 | 76.54700 | 30432 ft | 430 kts | 340° |
| 2026-04-21 19:37 | 44.33141 | 76.53743 | 30800 ft | 429 kts | 338° |
| 2026-04-21 19:37 | 44.35954 | 76.52396 | 31138 ft | 422 kts | 330° |
| 2026-04-21 19:37 | 44.38634 | 76.50816 | 31446 ft | 423 kts | 330° |
| 2026-04-21 19:38 | 44.41363 | 76.49230 | 31854 ft | 422 kts | 330° |
| 2026-04-21 19:38 | 44.44061 | 76.47652 | 32253 ft | 421 kts | 330° |
| 2026-04-21 19:38 | 44.45865 | 76.46596 | 32541 ft | 419 kts | 330° |
| 2026-04-21 19:38 | 44.49442 | 76.44499 | 32971 ft | 420 kts | 330° |
| 2026-04-21 19:39 | 44.52134 | 76.42923 | 33444 ft | 417 kts | 330° |
| 2026-04-21 19:39 | 44.54821 | 76.41345 | 33737 ft | 418 kts | 329° |
| 2026-04-21 19:39 | 44.57494 | 76.39774 | 34099 ft | 416 kts | 330° |
| 2026-04-21 19:39 | 44.60170 | 76.38201 | 34386 ft | 415 kts | 330° |
| 2026-04-21 19:40 | 44.62840 | 76.36630 | 34570 ft | 417 kts | 330° |
| 2026-04-21 19:40 | 44.65522 | 76.35050 | 34766 ft | 418 kts | 330° |
| 2026-04-21 19:40 | 44.68214 | 76.33462 | 35115 ft | 415 kts | 329° |
| 2026-04-21 19:40 | 44.70879 | 76.31889 | 35349 ft | 415 kts | 330° |
| 2026-04-21 19:41 | 44.73531 | 76.30324 | 35621 ft | 414 kts | 330° |
| 2026-04-21 19:41 | 44.76202 | 76.28743 | 35786 ft | 415 kts | 330° |
| 2026-04-21 19:41 | 44.78871 | 76.27164 | 35984 ft | 415 kts | 330° |
| 2026-04-21 19:41 | 44.81526 | 76.25590 | 36207 ft | 415 kts | 330° |
| 2026-04-21 19:42 | 44.84190 | 76.24010 | 36311 ft | 417 kts | 330° |
| 2026-04-21 19:42 | 44.86852 | 76.22430 | 36602 ft | 415 kts | 330° |
| 2026-04-21 19:42 | 44.89540 | 76.20834 | 36787 ft | 416 kts | 330° |
| 2026-04-21 19:42 | 44.92209 | 76.19245 | 36942 ft | 417 kts | 330° |
| 2026-04-21 19:43 | 44.94864 | 76.17664 | 37143 ft | 416 kts | 330° |
| 2026-04-21 19:43 | 44.97558 | 76.16060 | 37247 ft | 418 kts | 330° |
| 2026-04-21 19:43 | 45.00222 | 76.14470 | 37549 ft | 415 kts | 330° |
| 2026-04-21 19:43 | 45.02864 | 76.12891 | 37734 ft | 415 kts | 330° |
| 2026-04-21 19:44 | 45.05548 | 76.11287 | 37762 ft | 417 kts | 330° |
| 2026-04-21 19:44 | 45.08223 | 76.09686 | 37922 ft | 413 kts | 330° |
| 2026-04-21 19:44 | 45.10842 | 76.08118 | 37886 ft | 414 kts | 330° |
| 2026-04-21 19:45 | 45.16163 | 76.04926 | 37906 ft | 415 kts | 330° |
| 2026-04-21 19:45 | 45.21474 | 76.01733 | 37900 ft | 416 kts | 330° |
| 2026-04-21 19:46 | 45.26811 | 75.98516 | 37892 ft | 416 kts | 331° |
| 2026-04-21 19:46 | 45.32136 | 75.95302 | 37891 ft | 415 kts | 331° |
| 2026-04-21 19:47 | 45.37435 | 75.92096 | 37887 ft | 416 kts | 331° |
| 2026-04-21 19:47 | 45.42785 | 75.88854 | 37887 ft | 417 kts | 331° |
| 2026-04-21 19:48 | 45.48100 | 75.85626 | 37893 ft | 417 kts | 331° |
| 2026-04-21 19:48 | 45.53443 | 75.82373 | 37878 ft | 418 kts | 331° |
| 2026-04-21 19:49 | 45.58804 | 75.79104 | 37876 ft | 419 kts | 331° |
| 2026-04-21 19:49 | 45.64153 | 75.75835 | 37877 ft | 420 kts | 331° |
| 2026-04-21 19:50 | 45.68648 | 75.73082 | 37870 ft | 420 kts | 331° |
| 2026-04-21 19:50 | 45.74909 | 75.69241 | 37869 ft | 420 kts | 331° |
| 2026-04-21 19:51 | 45.80265 | 75.65951 | 37862 ft | 421 kts | 331° |
| 2026-04-21 19:51 | 45.85654 | 75.62631 | 37866 ft | 422 kts | 331° |
| 2026-04-21 19:52 | 45.91032 | 75.59312 | 37865 ft | 423 kts | 331° |
| 2026-04-21 19:52 | 45.96459 | 75.55954 | 37861 ft | 422 kts | 331° |
| 2026-04-21 19:53 | 46.01788 | 75.52653 | 37849 ft | 420 kts | 331° |
| 2026-04-21 19:53 | 46.07134 | 75.49332 | 37855 ft | 420 kts | 331° |
| 2026-04-21 19:54 | 46.12520 | 75.45978 | 37875 ft | 421 kts | 331° |
| 2026-04-21 19:54 | 46.17910 | 75.42615 | 37867 ft | 423 kts | 331° |
| 2026-04-21 19:55 | 46.23291 | 75.39256 | 37881 ft | 423 kts | 331° |
| 2026-04-21 19:55 | 46.28727 | 75.35882 | 37873 ft | 424 kts | 331° |
| 2026-04-21 19:56 | 46.34156 | 75.32503 | 37882 ft | 425 kts | 330° |
| 2026-04-21 19:56 | 46.39552 | 75.29137 | 37882 ft | 425 kts | 331° |
| 2026-04-21 19:57 | 46.44984 | 75.25742 | 37884 ft | 426 kts | 331° |
| 2026-04-21 19:57 | 46.50418 | 75.22338 | 37881 ft | 426 kts | 331° |
| 2026-04-21 19:58 | 46.55842 | 75.18933 | 37891 ft | 425 kts | 331° |
| 2026-04-21 19:58 | 46.61262 | 75.15523 | 37884 ft | 425 kts | 331° |
| 2026-04-21 19:59 | 46.66676 | 75.12109 | 37885 ft | 426 kts | 331° |
| 2026-04-21 19:59 | 46.72088 | 75.08688 | 37882 ft | 427 kts | 331° |
| 2026-04-21 20:00 | 46.77544 | 75.05233 | 37881 ft | 428 kts | 331° |
| 2026-04-21 20:00 | 46.82986 | 75.01777 | 37888 ft | 427 kts | 331° |
| 2026-04-21 20:01 | 46.88448 | 74.98317 | 37883 ft | 427 kts | 332° |
| 2026-04-21 20:01 | 46.94015 | 74.95246 | 37882 ft | 427 kts | 333° |
| 2026-04-21 20:02 | 46.99580 | 74.92184 | 37891 ft | 428 kts | 334° |
| 2026-04-21 20:02 | 47.05175 | 74.89098 | 37892 ft | 429 kts | 334° |
| 2026-04-21 20:03 | 47.10751 | 74.86014 | 37891 ft | 430 kts | 334° |
| 2026-04-21 20:03 | 47.16362 | 74.82903 | 37891 ft | 429 kts | 334° |
| 2026-04-21 20:04 | 47.21964 | 74.79790 | 37900 ft | 430 kts | 334° |
| 2026-04-21 20:04 | 47.27544 | 74.76681 | 37904 ft | 431 kts | 334° |
| 2026-04-21 20:05 | 47.33125 | 74.73566 | 37900 ft | 430 kts | 334° |
| 2026-04-21 20:05 | 47.38721 | 74.70435 | 37901 ft | 430 kts | 334° |
| 2026-04-21 20:06 | 47.44308 | 74.67302 | 37906 ft | 431 kts | 334° |
| 2026-04-21 20:06 | 47.49925 | 74.64144 | 37907 ft | 431 kts | 334° |
| 2026-04-21 20:07 | 47.55500 | 74.61009 | 37907 ft | 432 kts | 334° |
| 2026-04-21 20:07 | 47.61137 | 74.57853 | 37917 ft | 432 kts | 334° |
| 2026-04-21 20:08 | 47.66703 | 74.54730 | 37911 ft | 431 kts | 334° |
| 2026-04-21 20:08 | 47.72312 | 74.51573 | 37912 ft | 432 kts | 334° |
| 2026-04-21 20:09 | 47.77940 | 74.48401 | 37915 ft | 433 kts | 334° |
| 2026-04-21 20:09 | 47.83564 | 74.45222 | 37911 ft | 433 kts | 334° |
| 2026-04-21 20:10 | 47.89180 | 74.42040 | 37914 ft | 434 kts | 334° |
| 2026-04-21 20:10 | 47.94801 | 74.38848 | 37911 ft | 433 kts | 334° |
| 2026-04-21 20:11 | 48.00459 | 74.35628 | 37912 ft | 434 kts | 334° |
| 2026-04-21 20:11 | 48.06109 | 74.32404 | 37922 ft | 434 kts | 334° |
| 2026-04-21 20:12 | 48.11779 | 74.29163 | 37929 ft | 435 kts | 334° |
| 2026-04-21 20:12 | 48.16490 | 74.26489 | 37924 ft | 435 kts | 334° |
| 2026-04-21 20:13 | 48.23082 | 74.22757 | 37930 ft | 433 kts | 334° |
| 2026-04-21 20:13 | 48.28712 | 74.19563 | 37934 ft | 434 kts | 334° |
| 2026-04-21 20:14 | 48.34354 | 74.16352 | 37924 ft | 433 kts | 334° |
| 2026-04-21 20:14 | 48.39988 | 74.13139 | 37925 ft | 434 kts | 334° |
| 2026-04-21 20:15 | 48.45615 | 74.09923 | 37919 ft | 433 kts | 334° |
| 2026-04-21 20:15 | 48.51212 | 74.06715 | 37925 ft | 435 kts | 334° |
| 2026-04-21 20:16 | 48.56871 | 74.03465 | 37920 ft | 435 kts | 334° |
| 2026-04-21 20:16 | 48.62524 | 74.00209 | 37918 ft | 435 kts | 334° |
| 2026-04-21 20:17 | 48.68172 | 73.96950 | 37913 ft | 435 kts | 334° |
| 2026-04-21 20:17 | 48.73780 | 73.93705 | 37908 ft | 435 kts | 334° |
| 2026-04-21 20:18 | 48.78471 | 73.90985 | 37901 ft | 434 kts | 334° |
| 2026-04-21 20:18 | 48.85053 | 73.87161 | 37910 ft | 435 kts | 334° |
| 2026-04-21 20:19 | 48.90698 | 73.83871 | 37903 ft | 435 kts | 334° |
| 2026-04-21 20:19 | 48.96346 | 73.80572 | 37901 ft | 435 kts | 334° |
| 2026-04-21 20:20 | 49.01954 | 73.77278 | 37895 ft | 436 kts | 334° |
| 2026-04-21 20:20 | 49.07589 | 73.73957 | 37883 ft | 435 kts | 334° |
| 2026-04-21 20:21 | 49.13248 | 73.70613 | 37895 ft | 435 kts | 334° |
| 2026-04-21 20:21 | 49.18890 | 73.67271 | 37886 ft | 436 kts | 334° |
| 2026-04-21 20:22 | 49.24545 | 73.63912 | 37875 ft | 436 kts | 334° |
| 2026-04-21 20:22 | 49.32980 | 73.58888 | 37872 ft | 437 kts | 334° |
| 2026-04-21 20:23 | 49.38624 | 73.55515 | 37870 ft | 436 kts | 334° |
| 2026-04-21 20:23 | 49.44278 | 73.52129 | 37867 ft | 436 kts | 334° |
| 2026-04-21 20:24 | 49.49944 | 73.48725 | 37864 ft | 438 kts | 333° |
| 2026-04-21 20:24 | 49.55500 | 73.45389 | 37844 ft | 414 kts | 333° |
| 2026-04-21 20:25 | 49.58128 | 73.43807 | 37816 ft | 401 kts | 333° |
| 2026-04-21 20:25 | 49.60724 | 73.42233 | 37324 ft | 407 kts | 333° |
| 2026-04-21 20:25 | 49.63388 | 73.40618 | 36755 ft | 412 kts | 334° |
| 2026-04-21 20:25 | 49.66052 | 73.38983 | 36131 ft | 412 kts | 331° |
| 2026-04-21 20:26 | 49.68530 | 73.36925 | 35649 ft | 404 kts | 322° |
| 2026-04-21 20:26 | 49.70719 | 73.34241 | 35173 ft | 399 kts | 314° |
| 2026-04-21 20:26 | 49.72767 | 73.31390 | 34694 ft | 401 kts | 314° |
| 2026-04-21 20:26 | 49.74840 | 73.28486 | 34189 ft | 403 kts | 314° |
| 2026-04-21 20:27 | 49.76903 | 73.25562 | 33654 ft | 405 kts | 314° |
| 2026-04-21 20:27 | 49.78962 | 73.22624 | 33119 ft | 407 kts | 314° |
| 2026-04-21 20:27 | 49.81065 | 73.19607 | 32569 ft | 410 kts | 314° |
| 2026-04-21 20:27 | 49.83147 | 73.16608 | 32021 ft | 412 kts | 314° |
| 2026-04-21 20:28 | 49.85230 | 73.13603 | 31473 ft | 415 kts | 314° |
| 2026-04-21 20:28 | 49.87348 | 73.10540 | 30921 ft | 418 kts | 314° |
| 2026-04-21 20:28 | 49.89476 | 73.07458 | 30339 ft | 420 kts | 315° |
| 2026-04-21 20:28 | 49.91602 | 73.04373 | 29724 ft | 421 kts | 315° |
| 2026-04-21 20:29 | 49.93708 | 73.01316 | 29129 ft | 421 kts | 315° |
| 2026-04-21 20:29 | 49.95844 | 72.98206 | 28548 ft | 416 kts | 315° |
| 2026-04-21 20:29 | 49.97941 | 72.95150 | 27981 ft | 411 kts | 315° |
| 2026-04-21 20:29 | 50.00005 | 72.92138 | 27430 ft | 407 kts | 315° |
| 2026-04-21 20:30 | 50.02035 | 72.89172 | 26912 ft | 404 kts | 315° |
| 2026-04-21 20:30 | 50.04085 | 72.86173 | 26398 ft | 403 kts | 315° |
| 2026-04-21 20:30 | 50.06119 | 72.83195 | 25899 ft | 400 kts | 315° |
| 2026-04-21 20:30 | 50.08131 | 72.80243 | 25414 ft | 398 kts | 315° |
| 2026-04-21 20:31 | 50.10118 | 72.77325 | 24938 ft | 395 kts | 315° |
| 2026-04-21 20:31 | 50.12119 | 72.74384 | 24466 ft | 392 kts | 315° |
| 2026-04-21 20:31 | 50.14082 | 72.71497 | 24007 ft | 389 kts | 315° |
| 2026-04-21 20:31 | 50.16055 | 72.68587 | 23545 ft | 387 kts | 315° |
| 2026-04-21 20:32 | 50.18021 | 72.65797 | 23084 ft | 386 kts | 320° |
| 2026-04-21 20:32 | 50.20274 | 72.63492 | 22624 ft | 385 kts | 329° |
| 2026-04-21 20:32 | 50.22626 | 72.61605 | 22150 ft | 384 kts | 330° |
| 2026-04-21 20:32 | 50.25001 | 72.59702 | 21666 ft | 382 kts | 330° |
| 2026-04-21 20:33 | 50.27351 | 72.57829 | 21194 ft | 379 kts | 330° |
| 2026-04-21 20:33 | 50.29680 | 72.55980 | 20728 ft | 376 kts | 330° |
| 2026-04-21 20:33 | 50.31991 | 72.54145 | 20274 ft | 373 kts | 331° |
| 2026-04-21 20:33 | 50.34299 | 72.52313 | 19825 ft | 371 kts | 330° |
| 2026-04-21 20:34 | 50.36580 | 72.50502 | 19379 ft | 369 kts | 330° |
| 2026-04-21 20:34 | 50.38864 | 72.48688 | 18936 ft | 366 kts | 331° |
| 2026-04-21 20:34 | 50.41132 | 72.46885 | 18500 ft | 364 kts | 330° |
| 2026-04-21 20:34 | 50.43372 | 72.45103 | 18068 ft | 362 kts | 330° |
| 2026-04-21 20:35 | 50.45578 | 72.43344 | 17651 ft | 359 kts | 330° |
| 2026-04-21 20:35 | 50.47798 | 72.41575 | 17231 ft | 357 kts | 330° |
| 2026-04-21 20:35 | 50.50001 | 72.39817 | 16813 ft | 356 kts | 330° |
| 2026-04-21 20:35 | 50.52206 | 72.38055 | 16391 ft | 354 kts | 330° |
| 2026-04-21 20:36 | 50.54404 | 72.36298 | 15962 ft | 352 kts | 330° |
| 2026-04-21 20:36 | 50.56560 | 72.34570 | 15540 ft | 349 kts | 329° |
| 2026-04-21 20:36 | 50.58713 | 72.32845 | 15130 ft | 347 kts | 329° |
| 2026-04-21 20:36 | 50.60860 | 72.31123 | 14725 ft | 344 kts | 329° |
| 2026-04-21 20:37 | 50.62996 | 72.29406 | 14320 ft | 343 kts | 329° |
| 2026-04-21 20:37 | 50.65091 | 72.27719 | 13911 ft | 343 kts | 329° |
| 2026-04-21 20:37 | 50.67225 | 72.26002 | 13481 ft | 342 kts | 329° |
| 2026-04-21 20:37 | 50.69332 | 72.24308 | 13037 ft | 340 kts | 329° |
| 2026-04-21 20:38 | 50.71415 | 72.22629 | 12644 ft | 337 kts | 329° |
| 2026-04-21 20:38 | 50.73465 | 72.20976 | 12465 ft | 325 kts | 329° |
| 2026-04-21 20:38 | 50.75446 | 72.19375 | 12156 ft | 324 kts | 329° |
| 2026-04-21 20:38 | 50.77477 | 72.17732 | 11748 ft | 325 kts | 329° |
| 2026-04-21 20:39 | 50.79470 | 72.16117 | 11324 ft | 323 kts | 329° |
| 2026-04-21 20:39 | 50.81446 | 72.14513 | 10927 ft | 319 kts | 329° |
| 2026-04-21 20:39 | 50.83414 | 72.12918 | 10589 ft | 314 kts | 329° |
| 2026-04-21 20:39 | 50.85325 | 72.11369 | 10328 ft | 311 kts | 329° |
| 2026-04-21 20:40 | 50.87263 | 72.09798 | 10121 ft | 311 kts | 329° |
| 2026-04-21 20:40 | 50.89137 | 72.08272 | 10002 ft | 292 kts | 329° |
| 2026-04-21 20:40 | 50.90886 | 72.06854 | 9755 ft | 274 kts | 328° |
| 2026-04-21 20:40 | 50.92547 | 72.05501 | 9699 ft | 263 kts | 328° |
| 2026-04-21 20:41 | 50.94166 | 72.04179 | 9709 ft | 262 kts | 328° |
| 2026-04-21 20:41 | 50.95806 | 72.02837 | 9717 ft | 270 kts | 328° |
| 2026-04-21 20:41 | 50.97487 | 72.01458 | 9451 ft | 277 kts | 328° |
| 2026-04-21 20:41 | 50.99200 | 72.00052 | 9138 ft | 275 kts | 329° |
| 2026-04-21 20:42 | 51.00884 | 71.98678 | 8856 ft | 270 kts | 329° |
| 2026-04-21 20:42 | 51.02526 | 71.97335 | 8597 ft | 266 kts | 329° |
| 2026-04-21 20:42 | 51.04178 | 71.95981 | 8311 ft | 265 kts | 328° |
| 2026-04-21 20:42 | 51.05809 | 71.94643 | 8068 ft | 265 kts | 329° |
| 2026-04-21 20:43 | 51.07452 | 71.93297 | 7732 ft | 268 kts | 329° |
| 2026-04-21 20:43 | 51.09103 | 71.91943 | 7429 ft | 267 kts | 329° |
| 2026-04-21 20:43 | 51.10738 | 71.90604 | 7078 ft | 266 kts | 329° |
| 2026-04-21 20:43 | 51.12391 | 71.89245 | 6772 ft | 263 kts | 329° |
| 2026-04-21 20:44 | 51.13992 | 71.87833 | 6314 ft | 265 kts | 320° |
| 2026-04-21 20:44 | 51.15337 | 71.85860 | 6021 ft | 259 kts | 312° |
| 2026-04-21 20:44 | 51.16605 | 71.83862 | 5803 ft | 255 kts | 313° |
| 2026-04-21 20:44 | 51.17850 | 71.81907 | 5626 ft | 255 kts | 312° |
| 2026-04-21 20:45 | 51.19062 | 71.79827 | 5414 ft | 252 kts | 300° |
| 2026-04-21 20:45 | 51.19629 | 71.77299 | 5215 ft | 239 kts | 270° |
| 2026-04-21 20:45 | 51.19364 | 71.74758 | 5078 ft | 229 kts | 253° |
| 2026-04-21 20:45 | 51.18656 | 71.72587 | 4929 ft | 220 kts | 228° |
| 2026-04-21 20:46 | 51.17595 | 71.70853 | 4766 ft | 215 kts | 226° |
| 2026-04-21 20:46 | 51.16573 | 71.69164 | 4590 ft | 211 kts | 226° |
| 2026-04-21 20:46 | 51.15565 | 71.67527 | 4422 ft | 207 kts | 225° |
| 2026-04-21 20:46 | 51.14553 | 71.65909 | 4207 ft | 206 kts | 225° |
| 2026-04-21 20:47 | 51.13533 | 71.64288 | 3953 ft | 206 kts | 225° |
| 2026-04-21 20:47 | 51.12521 | 71.62689 | 3692 ft | 206 kts | 224° |
| 2026-04-21 20:47 | 51.11512 | 71.61098 | 3470 ft | 205 kts | 224° |
| 2026-04-21 20:47 | 51.10497 | 71.59508 | 3191 ft | 204 kts | 224° |
| 2026-04-21 20:48 | 51.09483 | 71.57913 | 2907 ft | 204 kts | 224° |
| 2026-04-21 20:48 | 51.08501 | 71.56370 | 2615 ft | 194 kts | 224° |
| 2026-04-21 20:48 | 51.07581 | 71.54932 | 2390 ft | 175 kts | 224° |
| 2026-04-21 20:48 | 51.06768 | 71.53658 | 2155 ft | 157 kts | 224° |
| 2026-04-21 20:49 | 51.06028 | 71.52502 | 1922 ft | 142 kts | 224° |
| 2026-04-21 20:49 | 51.05358 | 71.51457 | 1725 ft | 129 kts | 225° |
| 2026-04-21 20:49 | 51.04712 | 71.50442 | 1530 ft | 136 kts | 223° |
| 2026-04-21 20:49 | 51.04023 | 71.49386 | 1432 ft | 139 kts | 224° |
| 2026-04-21 20:50 | 51.03327 | 71.48294 | 1217 ft | 142 kts | 224° |
| 2026-04-21 20:50 | 51.02659 | 71.47247 | 1177 ft | 115 kts | 225° |
| 2026-04-21 20:50 | 51.02255 | 71.46617 | 1177 ft | 56 kts | 225° |
| 2026-04-21 20:50 | 51.01984 | 71.46192 | 1177 ft | 53 kts | 227° |
| 2026-04-21 20:51 | 51.01773 | 71.45860 | 1177 ft | 36 kts | 225° |
| 2026-04-21 20:51 | 51.01695 | 71.45699 | 1177 ft | 9 kts | 271° |
| 2026-04-21 20:51 | 51.01725 | 71.45608 | 1177 ft | 9 kts | 312° |
| 2026-04-21 20:51 | 51.01773 | 71.45531 | 1177 ft | 9 kts | 314° |
| 2026-04-21 20:52 | 51.01829 | 71.45505 | 1177 ft | 8 kts | 17° |
| 2026-04-21 20:52 | 51.01874 | 71.45558 | 1177 ft | 8 kts | 45° |
| 2026-04-21 20:52 | 51.01916 | 71.45625 | 1177 ft | 8 kts | 45° |
| 2026-04-21 20:52 | 51.01964 | 71.45700 | 1177 ft | 12 kts | 45° |
| 2026-04-21 20:53 | 51.02051 | 71.45836 | 1177 ft | 22 kts | 45° |
| 2026-04-21 20:53 | 51.02167 | 71.46016 | 1177 ft | 23 kts | 45° |
| 2026-04-21 20:53 | 51.02278 | 71.46189 | 1177 ft | 14 kts | 44° |
| 2026-04-21 20:53 | 51.02340 | 71.46240 | 1177 ft | 9 kts | 345° |
| 2026-04-21 20:54 | 51.02389 | 71.46180 | 1177 ft | 9 kts | 314° |
| 2026-04-21 20:54 | 51.02434 | 71.46107 | 1177 ft | 9 kts | 316° |
| 2026-04-21 20:54 | 51.02479 | 71.46034 | 1177 ft | 9 kts | 314° |
| 2026-04-21 20:54 | 51.02527 | 71.45956 | 1177 ft | 9 kts | 317° |
| 2026-04-21 20:55 | 51.02562 | 71.45903 | 1177 ft | 2 kts | 316° |
| 2026-04-21 20:55 | 51.02563 | 71.45901 | 1177 ft | 0 kts | 316° |
| 2026-04-21 20:57 | 51.02558 | 71.45910 | 1177 ft | 2 kts | 323° |
| 2026-04-21 20:58 | 51.02545 | 71.45921 | 1177 ft | 2 kts | 341° |
| 2026-04-21 20:58 | 51.02531 | 71.45926 | 1177 ft | 2 kts | 357° |
| 2026-04-21 20:58 | 51.02516 | 71.45924 | 1177 ft | 2 kts | 12° |
| 2026-04-21 20:58 | 51.02502 | 71.45917 | 1177 ft | 2 kts | 28° |
| 2026-04-21 20:59 | 51.02490 | 71.45904 | 1177 ft | 2 kts | 44° |
| 2026-04-21 20:59 | 51.02479 | 71.45886 | 1177 ft | 2 kts | 45° |
| 2026-04-21 20:59 | 51.02474 | 71.45879 | 1177 ft | 0 kts | 44° |